Flight Track Log - Related Links

Times and Time Zones

All times are in EDT time to prevent confusion due to time zone crossing. See the DAL1937 flight status page for this flight to view local times or setup timezone preferences in your user account.

Time Position Orientation Groundspeed Altitude Reporting Facility
EDT Latitude Longitude Course Direction KTS MPH feet Rate Location/Type
Sun 06:17:47 AM 39.1500 -76.6500 290° West 153 176 1,800  Level Potomac TRACON
Sun 06:18:41 AM 39.1167 -76.6833 218° Southwest 238 274 2,800 2,167 Climbing Potomac TRACON
Sun 06:19:35 AM 39.1333 -76.7500 288° West 276 318 5,700 3,222 Climbing Potomac TRACON
Sun 06:20:00 AM 39.2266 -77.1633 339° North  Level FlightAware Approximate
Sun 06:20:29 AM 39.1667 -76.8333 297° West 278 320 8,600  Level Potomac TRACON
Sun 06:21:00 AM 39.3089 -77.2421 322° Northwest  Level FlightAware Approximate
Sun 06:21:29 AM 39.2000 -76.9167 297° West 291 335 11,000  Level Potomac TRACON
Sun 06:22:00 AM 39.3758 -77.3364 288° West  Level FlightAware Approximate
Sun 06:23:00 AM 39.4104 -77.4614 290° West  Level FlightAware Approximate
Sun 06:23:56 AM 39.3050 -77.1956 296° West 357 411 16,000  Level Washington Center
Sun 06:24:54 AM 39.3511 -77.3172 296° West 372 428 17,900 2,033 Climbing Washington Center
Sun 06:25:57 AM 39.4014 -77.4447 297° West 385 443 20,100 1,951 Climbing Washington Center
Sun 06:26:57 AM 39.4494 -77.5750 296° West 397 457 21,900 1,800 Climbing Washington Center
Sun 06:27:57 AM 39.4928 -77.7133 292° West 409 471 23,700 1,550 Climbing Washington Center
Sun 06:28:57 AM 39.5361 -77.8572 291° West 421 484 25,000 1,300 Climbing Washington Center
Sun 06:31:20 AM 39.6464 -78.2158 292° West 436 502 28,100 1,300 Climbing Cleveland Center
Sun 06:32:20 AM 39.6911 -78.3681 291° West 448 516 29,400 1,250 Climbing Cleveland Center
Sun 06:33:20 AM 39.7378 -78.5153 292° West 443 510 30,600 1,300 Climbing Cleveland Center
Sun 06:34:20 AM 39.7964 -78.6539 299° West 443 510 32,000 1,300 Climbing Cleveland Center
Sun 06:35:20 AM 39.8614 -78.7928 301° West 437 503 33,200 1,000 Climbing Cleveland Center
Sun 06:36:20 AM 39.9236 -78.9236 302° West 437 503 34,000 400 Climbing Cleveland Center
Sun 06:37:20 AM 39.9883 -79.0603 302° West 442 509 34,000  Level Cleveland Center
Sun 06:38:20 AM 40.0503 -79.1944 301° West 442 509 34,000  Level Cleveland Center
Sun 06:39:20 AM 40.1144 -79.3317 301° West 437 503 34,000  Level Cleveland Center
Sun 06:40:20 AM 40.1764 -79.4664 301° West 437 503 34,000  Level Cleveland Center
Sun 06:41:20 AM 40.2381 -79.5986 301° West 437 503 34,000  Level Cleveland Center
Sun 06:42:20 AM 40.2997 -79.7364 300° West 437 503 34,000  Level Cleveland Center
Sun 06:43:20 AM 40.3608 -79.8719 301° West 437 503 34,000  Level Cleveland Center
Sun 06:44:20 AM 40.4200 -80.0131 299° West 442 509 34,000 -350 Level Cleveland Center
Sun 06:45:20 AM 40.4811 -80.1492 301° West 442 509 33,300 -1,100 Descending Cleveland Center
Sun 06:46:20 AM 40.5461 -80.2853 302° West 442 509 31,800 -1,550 Descending Cleveland Center
Sun 06:47:20 AM 40.6175 -80.4353 302° West 442 509 30,200 -900 Descending Cleveland Center
Sun 06:48:20 AM 40.6800 -80.5586 304° West 447 514 30,000 -100 Descending Cleveland Center
Sun 06:49:20 AM 40.7489 -80.7008 303° West 455 524 30,000  Level Cleveland Center
Sun 06:50:20 AM 40.8194 -80.8383 304° West 455 524 30,000  Level Cleveland Center
Sun 06:51:20 AM 40.8878 -80.9786 303° West 455 524 30,000  Level Cleveland Center
Sun 06:52:20 AM 40.9539 -81.1219 301° West 455 524 30,000  Level Cleveland Center
Sun 06:53:20 AM 41.0200 -81.2628 302° West 450 518 30,000  Level Cleveland Center
Sun 06:54:20 AM 41.0919 -81.4178 302° West 450 518 30,000  Level Cleveland Center
Sun 06:55:20 AM 41.1533 -81.5428 303° West 450 518 30,000  Level Cleveland Center
Sun 06:56:20 AM 41.2208 -81.6764 304° West 445 512 30,000 -450 Level Cleveland Center
Sun 06:57:20 AM 41.2819 -81.8156 300° West 445 512 29,100 -1,150 Descending Cleveland Center
Sun 06:58:20 AM 41.3472 -81.9550 302° West 445 512 27,700 -2,050 Descending Cleveland Center
Sun 06:59:20 AM 41.4100 -82.0947 301° West 445 512 25,000 -1,850 Descending Cleveland Center
Sun 07:00:20 AM 41.4689 -82.2208 302° West 420 483 24,000 -1,400 Descending Cleveland Center
Sun 07:01:20 AM 41.5314 -82.3556 302° West 420 483 22,200 -2,604 Descending Cleveland Center
Sun 07:02:06 AM 41.5858 -82.4681 303° West 419 482 19,400 -3,849 Descending Cleveland Center
Sun 07:03:06 AM 41.6419 -82.6003 300° West 409 471 15,400 -3,421 Descending Cleveland Center
Sun 07:04:07 AM 41.6981 -82.7217 302° West 382 440 12,500 -1,672 Descending Cleveland Center
Sun 07:05:08 AM 41.7647 -82.8325 309° West 386 444 12,000 -246 Descending Cleveland Center
Sun 07:06:09 AM 41.8444 -82.9217 320° Northwest 381 438 12,000  Level Cleveland Center
Sun 07:07:16 AM 41.9339 -83.0339 317° Northwest 381 438 12,000  Level Cleveland Center
Sun 07:08:29 AM 42.0192 -83.1350 319° Northwest 298 343 12,000  Level Cleveland Center
Sun 07:09:20 AM 42.0636 -83.1900 317° Northwest 319 367 12,000 -324 Level Cleveland Center
Sun 07:10:20 AM 42.1275 -83.2261 337° Northwest 268 308 11,400 -950 Descending Cleveland Center
Sun 07:11:20 AM 42.1881 -83.2203 North 236 272 10,100 -1,403 Descending Cleveland Center
Sun 07:11:37 AM 42.2114 -83.2044 27° Northeast 227 261 9,600 -2,000 Descending Cleveland Center
Sun 07:12:38 AM 42.2686 -83.1647 27° Northeast 228 262 7,500 -1,967 Descending Cleveland Center
Sun 07:13:39 AM 42.3217 -83.1219 31° Northeast 222 255 5,600 -1,230 Descending Cleveland Center
Sun 07:14:40 AM 42.3733 -83.1381 347° North 212 244 5,000 -639 Descending Cleveland Center
Sun 07:15:41 AM 42.3594 -83.2022 254° West 182 209 4,300 -689 Descending Cleveland Center

Login

Don't have an account? Register now (free) for customized features, flight alerts, and more!